sensor_id;sensor_type;location;lat;lon;timestamp;P1;P2;P0
74086;PMS7003;62445;48.406;-4.518;2023-02-03T00:01:53;4.25;4.00;4.00
74086;PMS7003;62445;48.406;-4.518;2023-02-03T00:04:18;3.25;3.25;2.50
74086;PMS7003;62445;48.406;-4.518;2023-02-03T00:06:44;4.25;4.25;4.00
74086;PMS7003;62445;48.406;-4.518;2023-02-03T00:09:10;4.00;4.00;3.50
74086;PMS7003;62445;48.406;-4.518;2023-02-03T00:11:36;4.00;3.50;3.25
74086;PMS7003;62445;48.406;-4.518;2023-02-03T00:14:01;4.50;4.50;4.00
74086;PMS7003;62445;48.406;-4.518;2023-02-03T00:16:29;3.75;3.75;3.00
74086;PMS7003;62445;48.406;-4.518;2023-02-03T00:18:54;4.25;4.25;4.00
74086;PMS7003;62445;48.406;-4.518;2023-02-03T00:21:20;5.25;5.00;4.00
74086;PMS7003;62445;48.406;-4.518;2023-02-03T00:23:45;5.00;5.00;3.75
74086;PMS7003;62445;48.406;-4.518;2023-02-03T00:26:12;4.50;3.00;3.00
74086;PMS7003;62445;48.406;-4.518;2023-02-03T00:28:39;5.00;5.00;4.00
74086;PMS7003;62445;48.406;-4.518;2023-02-03T00:31:04;4.00;3.00;3.00
74086;PMS7003;62445;48.406;-4.518;2023-02-03T00:33:30;3.00;3.00;3.00
74086;PMS7003;62445;48.406;-4.518;2023-02-03T00:35:57;3.00;3.00;2.00
74086;PMS7003;62445;48.406;-4.518;2023-02-03T00:38:28;4.25;4.25;4.00
74086;PMS7003;62445;48.406;-4.518;2023-02-03T00:40:53;4.75;3.00;2.00
74086;PMS7003;62445;48.406;-4.518;2023-02-03T00:43:19;4.00;4.00;3.50
74086;PMS7003;62445;48.406;-4.518;2023-02-03T00:45:45;3.00;3.00;2.50
74086;PMS7003;62445;48.406;-4.518;2023-02-03T00:48:10;4.00;4.00;3.00
74086;PMS7003;62445;48.406;-4.518;2023-02-03T00:50:36;3.25;3.25;2.75
74086;PMS7003;62445;48.406;-4.518;2023-02-03T00:53:01;2.00;2.00;2.00
74086;PMS7003;62445;48.406;-4.518;2023-02-03T00:55:26;3.00;3.00;3.00
74086;PMS7003;62445;48.406;-4.518;2023-02-03T00:57:52;3.50;3.50;2.75
74086;PMS7003;62445;48.406;-4.518;2023-02-03T01:00:18;3.00;3.00;2.75
74086;PMS7003;62445;48.406;-4.518;2023-02-03T01:02:44;5.00;3.25;3.00
74086;PMS7003;62445;48.406;-4.518;2023-02-03T01:05:10;3.00;3.00;2.75
74086;PMS7003;62445;48.406;-4.518;2023-02-03T01:07:35;2.00;2.00;1.75
74086;PMS7003;62445;48.406;-4.518;2023-02-03T01:10:02;3.00;3.00;3.00
74086;PMS7003;62445;48.406;-4.518;2023-02-03T01:12:28;3.00;3.00;1.75
74086;PMS7003;62445;48.406;-4.518;2023-02-03T01:14:55;2.25;2.00;2.00
74086;PMS7003;62445;48.406;-4.518;2023-02-03T01:17:20;2.25;1.75;1.75
74086;PMS7003;62445;48.406;-4.518;2023-02-03T01:19:46;2.00;2.00;2.00
74086;PMS7003;62445;48.406;-4.518;2023-02-03T01:22:11;2.00;2.00;2.00
74086;PMS7003;62445;48.406;-4.518;2023-02-03T01:24:36;3.00;3.00;3.00
74086;PMS7003;62445;48.406;-4.518;2023-02-03T01:27:02;2.00;2.00;2.00
74086;PMS7003;62445;48.406;-4.518;2023-02-03T01:29:27;3.25;2.00;1.75
74086;PMS7003;62445;48.406;-4.518;2023-02-03T01:31:53;3.25;2.25;2.00
74086;PMS7003;62445;48.406;-4.518;2023-02-03T01:34:18;3.25;3.00;2.25
74086;PMS7003;62445;48.406;-4.518;2023-02-03T01:36:44;3.25;3.25;3.00
74086;PMS7003;62445;48.406;-4.518;2023-02-03T01:39:10;2.00;2.00;2.00
74086;PMS7003;62445;48.406;-4.518;2023-02-03T01:41:37;3.25;2.25;2.00
74086;PMS7003;62445;48.406;-4.518;2023-02-03T01:47:21;4.00;4.00;3.00
74086;PMS7003;62445;48.406;-4.518;2023-02-03T01:52:45;2.00;2.00;1.00
74086;PMS7003;62445;48.406;-4.518;2023-02-03T01:55:16;3.25;3.25;2.00
74086;PMS7003;62445;48.406;-4.518;2023-02-03T01:57:51;2.00;2.00;2.00
74086;PMS7003;62445;48.406;-4.518;2023-02-03T02:00:20;2.75;2.00;1.25
74086;PMS7003;62445;48.406;-4.518;2023-02-03T02:02:46;3.00;2.25;1.75
74086;PMS7003;62445;48.406;-4.518;2023-02-03T02:07:53;2.00;2.00;1.25
74086;PMS7003;62445;48.406;-4.518;2023-02-03T02:10:22;2.50;2.00;1.50
74086;PMS7003;62445;48.406;-4.518;2023-02-03T02:12:47;3.00;2.75;2.00
74086;PMS7003;62445;48.406;-4.518;2023-02-03T02:15:13;3.25;1.50;1.50
74086;PMS7003;62445;48.406;-4.518;2023-02-03T02:18:01;4.00;2.50;1.50
74086;PMS7003;62445;48.406;-4.518;2023-02-03T02:39:54;1.25;1.00;1.00
74086;PMS7003;62445;48.406;-4.518;2023-02-03T02:42:49;1.25;1.25;1.00
74086;PMS7003;62445;48.406;-4.518;2023-02-03T02:51:07;1.00;1.00;1.00
74086;PMS7003;62445;48.406;-4.518;2023-02-03T02:53:36;1.00;1.00;1.00
74086;PMS7003;62445;48.406;-4.518;2023-02-03T02:56:08;2.00;2.00;2.00
74086;PMS7003;62445;48.406;-4.518;2023-02-03T02:58:37;1.00;1.00;1.00
74086;PMS7003;62445;48.406;-4.518;2023-02-03T03:01:07;1.25;1.25;1.00
74086;PMS7003;62445;48.406;-4.518;2023-02-03T03:03:33;1.00;1.00;1.00
74086;PMS7003;62445;48.406;-4.518;2023-02-03T03:06:01;1.00;1.00;1.00
74086;PMS7003;62445;48.406;-4.518;2023-02-03T03:08:38;2.00;2.00;1.00
74086;PMS7003;62445;48.406;-4.518;2023-02-03T03:11:08;3.00;2.25;1.25
74086;PMS7003;62445;48.406;-4.518;2023-02-03T03:13:35;1.25;1.25;1.00
74086;PMS7003;62445;48.406;-4.518;2023-02-03T03:16:06;1.00;1.00;1.00
74086;PMS7003;62445;48.406;-4.518;2023-02-03T03:18:36;1.00;1.00;1.00
74086;PMS7003;62445;48.406;-4.518;2023-02-03T03:21:08;1.00;1.00;1.00
74086;PMS7003;62445;48.406;-4.518;2023-02-03T03:23:38;1.75;1.50;1.00
74086;PMS7003;62445;48.406;-4.518;2023-02-03T03:26:08;1.00;1.00;1.00
74086;PMS7003;62445;48.406;-4.518;2023-02-03T03:28:46;1.00;1.00;1.00
74086;PMS7003;62445;48.406;-4.518;2023-02-03T03:31:15;2.00;1.00;1.00
74086;PMS7003;62445;48.406;-4.518;2023-02-03T03:33:43;1.00;1.00;1.00
74086;PMS7003;62445;48.406;-4.518;2023-02-03T03:36:21;1.00;1.00;1.00
74086;PMS7003;62445;48.406;-4.518;2023-02-03T03:38:55;0.75;0.75;0.25
74086;PMS7003;62445;48.406;-4.518;2023-02-03T03:44:17;1.00;1.00;0.75
74086;PMS7003;62445;48.406;-4.518;2023-02-03T03:46:50;1.50;1.50;1.50
74086;PMS7003;62445;48.406;-4.518;2023-02-03T03:49:27;1.00;1.00;1.00
74086;PMS7003;62445;48.406;-4.518;2023-02-03T03:51:56;1.00;1.00;1.00
74086;PMS7003;62445;48.406;-4.518;2023-02-03T03:54:26;1.00;1.00;1.00
74086;PMS7003;62445;48.406;-4.518;2023-02-03T03:59:33;1.00;1.00;1.00
74086;PMS7003;62445;48.406;-4.518;2023-02-03T04:02:03;1.00;1.00;1.00
74086;PMS7003;62445;48.406;-4.518;2023-02-03T04:04:28;1.75;1.75;1.00
74086;PMS7003;62445;48.406;-4.518;2023-02-03T04:06:56;1.00;1.00;1.00
74086;PMS7003;62445;48.406;-4.518;2023-02-03T04:09:21;0.00;0.00;0.00
74086;PMS7003;62445;48.406;-4.518;2023-02-03T04:11:47;0.50;0.50;0.25
74086;PMS7003;62445;48.406;-4.518;2023-02-03T04:14:30;0.75;0.75;0.00
74086;PMS7003;62445;48.406;-4.518;2023-02-03T04:16:58;1.00;1.00;1.00
74086;PMS7003;62445;48.406;-4.518;2023-02-03T04:19:24;1.00;1.00;1.00
74086;PMS7003;62445;48.406;-4.518;2023-02-03T04:21:49;0.50;0.50;0.25
74086;PMS7003;62445;48.406;-4.518;2023-02-03T04:24:15;1.00;1.00;0.00
74086;PMS7003;62445;48.406;-4.518;2023-02-03T04:26:40;0.75;0.75;0.50
74086;PMS7003;62445;48.406;-4.518;2023-02-03T04:29:06;0.75;0.00;0.00
74086;PMS7003;62445;48.406;-4.518;2023-02-03T04:31:32;0.25;0.25;0.25
74086;PMS7003;62445;48.406;-4.518;2023-02-03T04:33:58;1.75;1.00;1.00
74086;PMS7003;62445;48.406;-4.518;2023-02-03T04:36:24;1.00;1.00;0.25
74086;PMS7003;62445;48.406;-4.518;2023-02-03T04:38:49;0.00;0.00;0.00
74086;PMS7003;62445;48.406;-4.518;2023-02-03T04:41:14;1.00;1.00;1.00
74086;PMS7003;62445;48.406;-4.518;2023-02-03T04:43:40;1.00;1.00;0.25
74086;PMS7003;62445;48.406;-4.518;2023-02-03T04:46:05;0.50;0.50;0.00
74086;PMS7003;62445;48.406;-4.518;2023-02-03T04:48:31;1.50;1.00;0.75
74086;PMS7003;62445;48.406;-4.518;2023-02-03T04:51:00;1.00;0.00;0.00
74086;PMS7003;62445;48.406;-4.518;2023-02-03T04:53:29;0.50;0.50;0.00
74086;PMS7003;62445;48.406;-4.518;2023-02-03T04:55:55;1.00;1.00;1.00
74086;PMS7003;62445;48.406;-4.518;2023-02-03T04:58:20;0.00;0.00;0.00
74086;PMS7003;62445;48.406;-4.518;2023-02-03T05:00:46;0.00;0.00;0.00
74086;PMS7003;62445;48.406;-4.518;2023-02-03T05:03:11;0.50;0.50;0.50
74086;PMS7003;62445;48.406;-4.518;2023-02-03T05:05:37;0.00;0.00;0.00
74086;PMS7003;62445;48.406;-4.518;2023-02-03T05:08:02;0.00;0.00;0.00
74086;PMS7003;62445;48.406;-4.518;2023-02-03T05:10:28;1.00;1.00;0.00
74086;PMS7003;62445;48.406;-4.518;2023-02-03T05:12:53;0.00;0.00;0.00
74086;PMS7003;62445;48.406;-4.518;2023-02-03T05:15:19;0.00;0.00;0.00
74086;PMS7003;62445;48.406;-4.518;2023-02-03T05:17:44;0.50;0.50;0.50
74086;PMS7003;62445;48.406;-4.518;2023-02-03T05:20:10;0.00;0.00;0.00
74086;PMS7003;62445;48.406;-4.518;2023-02-03T05:22:35;0.25;0.25;0.25
74086;PMS7003;62445;48.406;-4.518;2023-02-03T05:25:01;1.75;1.00;0.50
74086;PMS7003;62445;48.406;-4.518;2023-02-03T05:27:27;1.00;1.00;0.50
74086;PMS7003;62445;48.406;-4.518;2023-02-03T05:29:53;1.25;1.25;1.00
74086;PMS7003;62445;48.406;-4.518;2023-02-03T05:32:18;0.00;0.00;0.00
74086;PMS7003;62445;48.406;-4.518;2023-02-03T05:34:43;2.00;1.00;1.00
74086;PMS7003;62445;48.406;-4.518;2023-02-03T05:37:09;1.00;0.00;0.00
74086;PMS7003;62445;48.406;-4.518;2023-02-03T05:39:34;0.00;0.00;0.00
74086;PMS7003;62445;48.406;-4.518;2023-02-03T05:42:00;0.00;0.00;0.00
74086;PMS7003;62445;48.406;-4.518;2023-02-03T05:44:27;1.00;1.00;1.00
74086;PMS7003;62445;48.406;-4.518;2023-02-03T05:46:53;0.00;0.00;0.00
74086;PMS7003;62445;48.406;-4.518;2023-02-03T05:49:20;0.25;0.25;0.00
74086;PMS7003;62445;48.406;-4.518;2023-02-03T05:51:47;0.00;0.00;0.00
74086;PMS7003;62445;48.406;-4.518;2023-02-03T05:54:13;1.00;1.00;0.00
74086;PMS7003;62445;48.406;-4.518;2023-02-03T05:56:39;1.50;0.00;0.00
74086;PMS7003;62445;48.406;-4.518;2023-02-03T05:59:05;0.50;0.50;0.50
74086;PMS7003;62445;48.406;-4.518;2023-02-03T06:01:31;0.00;0.00;0.00
74086;PMS7003;62445;48.406;-4.518;2023-02-03T06:03:56;0.00;0.00;0.00
74086;PMS7003;62445;48.406;-4.518;2023-02-03T06:06:22;0.00;0.00;0.00
74086;PMS7003;62445;48.406;-4.518;2023-02-03T06:08:47;0.75;0.75;0.00
74086;PMS7003;62445;48.406;-4.518;2023-02-03T06:11:13;0.00;0.00;0.00
74086;PMS7003;62445;48.406;-4.518;2023-02-03T06:13:38;0.00;0.00;0.00
74086;PMS7003;62445;48.406;-4.518;2023-02-03T06:16:04;0.00;0.00;0.00
74086;PMS7003;62445;48.406;-4.518;2023-02-03T06:18:29;0.00;0.00;0.00
74086;PMS7003;62445;48.406;-4.518;2023-02-03T06:20:55;0.00;0.00;0.00
74086;PMS7003;62445;48.406;-4.518;2023-02-03T06:23:20;0.00;0.00;0.00
74086;PMS7003;62445;48.406;-4.518;2023-02-03T06:25:46;0.00;0.00;0.00
74086;PMS7003;62445;48.406;-4.518;2023-02-03T06:28:13;1.00;0.00;0.00
74086;PMS7003;62445;48.406;-4.518;2023-02-03T06:30:39;0.00;0.00;0.00
74086;PMS7003;62445;48.406;-4.518;2023-02-03T06:33:04;0.00;0.00;0.00
74086;PMS7003;62445;48.406;-4.518;2023-02-03T06:35:30;0.00;0.00;0.00
74086;PMS7003;62445;48.406;-4.518;2023-02-03T06:37:55;0.00;0.00;0.00
74086;PMS7003;62445;48.406;-4.518;2023-02-03T06:40:20;0.00;0.00;0.00
74086;PMS7003;62445;48.406;-4.518;2023-02-03T06:42:46;0.00;0.00;0.00
74086;PMS7003;62445;48.406;-4.518;2023-02-03T06:45:12;0.00;0.00;0.00
74086;PMS7003;62445;48.406;-4.518;2023-02-03T06:47:39;0.00;0.00;0.00
74086;PMS7003;62445;48.406;-4.518;2023-02-03T06:50:09;0.00;0.00;0.00
74086;PMS7003;62445;48.406;-4.518;2023-02-03T06:52:35;0.50;0.50;0.50
74086;PMS7003;62445;48.406;-4.518;2023-02-03T06:55:01;0.00;0.00;0.00
74086;PMS7003;62445;48.406;-4.518;2023-02-03T06:57:28;0.00;0.00;0.00
74086;PMS7003;62445;48.406;-4.518;2023-02-03T06:59:53;0.00;0.00;0.00
74086;PMS7003;62445;48.406;-4.518;2023-02-03T07:02:19;0.00;0.00;0.00
74086;PMS7003;62445;48.406;-4.518;2023-02-03T07:04:44;0.00;0.00;0.00
74086;PMS7003;62445;48.406;-4.518;2023-02-03T07:07:10;0.00;0.00;0.00
74086;PMS7003;62445;48.406;-4.518;2023-02-03T07:09:36;0.00;0.00;0.00
74086;PMS7003;62445;48.406;-4.518;2023-02-03T07:12:02;0.00;0.00;0.00
74086;PMS7003;62445;48.406;-4.518;2023-02-03T07:14:28;0.00;0.00;0.00
74086;PMS7003;62445;48.406;-4.518;2023-02-03T07:16:55;0.00;0.00;0.00
74086;PMS7003;62445;48.406;-4.518;2023-02-03T07:19:21;0.00;0.00;0.00
74086;PMS7003;62445;48.406;-4.518;2023-02-03T07:21:46;0.00;0.00;0.00
74086;PMS7003;62445;48.406;-4.518;2023-02-03T07:24:12;0.00;0.00;0.00
74086;PMS7003;62445;48.406;-4.518;2023-02-03T07:26:37;0.00;0.00;0.00
74086;PMS7003;62445;48.406;-4.518;2023-02-03T07:29:03;0.00;0.00;0.00
74086;PMS7003;62445;48.406;-4.518;2023-02-03T07:31:29;0.00;0.00;0.00
74086;PMS7003;62445;48.406;-4.518;2023-02-03T07:33:55;0.00;0.00;0.00
74086;PMS7003;62445;48.406;-4.518;2023-02-03T07:36:20;0.00;0.00;0.00
74086;PMS7003;62445;48.406;-4.518;2023-02-03T07:38:46;0.00;0.00;0.00
74086;PMS7003;62445;48.406;-4.518;2023-02-03T07:41:11;0.00;0.00;0.00
74086;PMS7003;62445;48.406;-4.518;2023-02-03T07:43:37;0.00;0.00;0.00
74086;PMS7003;62445;48.406;-4.518;2023-02-03T07:46:02;0.00;0.00;0.00
74086;PMS7003;62445;48.406;-4.518;2023-02-03T07:48:28;0.00;0.00;0.00
74086;PMS7003;62445;48.406;-4.518;2023-02-03T07:50:53;0.00;0.00;0.00
74086;PMS7003;62445;48.406;-4.518;2023-02-03T07:53:19;0.00;0.00;0.00
74086;PMS7003;62445;48.406;-4.518;2023-02-03T07:55:44;0.00;0.00;0.00
74086;PMS7003;62445;48.406;-4.518;2023-02-03T07:58:10;0.00;0.00;0.00
74086;PMS7003;62445;48.406;-4.518;2023-02-03T08:00:35;0.00;0.00;0.00
74086;PMS7003;62445;48.406;-4.518;2023-02-03T08:03:01;0.00;0.00;0.00
74086;PMS7003;62445;48.406;-4.518;2023-02-03T08:05:26;0.00;0.00;0.00
74086;PMS7003;62445;48.406;-4.518;2023-02-03T08:07:52;0.00;0.00;0.00
74086;PMS7003;62445;48.406;-4.518;2023-02-03T08:10:17;0.00;0.00;0.00
74086;PMS7003;62445;48.406;-4.518;2023-02-03T08:12:43;0.00;0.00;0.00
74086;PMS7003;62445;48.406;-4.518;2023-02-03T08:15:10;0.00;0.00;0.00
74086;PMS7003;62445;48.406;-4.518;2023-02-03T08:17:37;0.00;0.00;0.00
74086;PMS7003;62445;48.406;-4.518;2023-02-03T08:20:05;0.00;0.00;0.00
74086;PMS7003;62445;48.406;-4.518;2023-02-03T08:22:31;0.00;0.00;0.00
74086;PMS7003;62445;48.406;-4.518;2023-02-03T08:24:57;0.00;0.00;0.00
74086;PMS7003;62445;48.406;-4.518;2023-02-03T08:27:22;0.75;0.00;0.00
74086;PMS7003;62445;48.406;-4.518;2023-02-03T08:29:48;1.00;0.00;0.00
74086;PMS7003;62445;48.406;-4.518;2023-02-03T08:32:20;0.00;0.00;0.00
74086;PMS7003;62445;48.406;-4.518;2023-02-03T08:34:46;0.00;0.00;0.00
74086;PMS7003;62445;48.406;-4.518;2023-02-03T08:37:13;1.00;0.00;0.00
74086;PMS7003;62445;48.406;-4.518;2023-02-03T08:39:40;0.00;0.00;0.00
74086;PMS7003;62445;48.406;-4.518;2023-02-03T08:42:06;0.00;0.00;0.00
74086;PMS7003;62445;48.406;-4.518;2023-02-03T08:44:31;0.00;0.00;0.00
74086;PMS7003;62445;48.406;-4.518;2023-02-03T08:46:58;0.00;0.00;0.00
74086;PMS7003;62445;48.406;-4.518;2023-02-03T08:49:27;0.00;0.00;0.00
74086;PMS7003;62445;48.406;-4.518;2023-02-03T08:51:54;0.00;0.00;0.00
74086;PMS7003;62445;48.406;-4.518;2023-02-03T08:54:20;0.00;0.00;0.00
74086;PMS7003;62445;48.406;-4.518;2023-02-03T08:56:46;0.00;0.00;0.00
74086;PMS7003;62445;48.406;-4.518;2023-02-03T08:59:11;0.00;0.00;0.00
74086;PMS7003;62445;48.406;-4.518;2023-02-03T09:01:38;0.00;0.00;0.00
74086;PMS7003;62445;48.406;-4.518;2023-02-03T09:04:12;0.00;0.00;0.00
74086;PMS7003;62445;48.406;-4.518;2023-02-03T09:06:41;0.00;0.00;0.00
74086;PMS7003;62445;48.406;-4.518;2023-02-03T09:09:06;0.00;0.00;0.00
74086;PMS7003;62445;48.406;-4.518;2023-02-03T09:11:31;0.00;0.00;0.00
74086;PMS7003;62445;48.406;-4.518;2023-02-03T09:13:57;0.00;0.00;0.00
74086;PMS7003;62445;48.406;-4.518;2023-02-03T09:16:23;0.00;0.00;0.00
74086;PMS7003;62445;48.406;-4.518;2023-02-03T09:18:49;0.00;0.00;0.00
74086;PMS7003;62445;48.406;-4.518;2023-02-03T09:21:15;0.00;0.00;0.00
74086;PMS7003;62445;48.406;-4.518;2023-02-03T09:23:41;0.00;0.00;0.00
74086;PMS7003;62445;48.406;-4.518;2023-02-03T09:26:09;0.00;0.00;0.00
74086;PMS7003;62445;48.406;-4.518;2023-02-03T09:28:36;0.00;0.00;0.00
74086;PMS7003;62445;48.406;-4.518;2023-02-03T09:31:03;0.00;0.00;0.00
74086;PMS7003;62445;48.406;-4.518;2023-02-03T09:33:33;0.00;0.00;0.00
74086;PMS7003;62445;48.406;-4.518;2023-02-03T09:35:58;0.00;0.00;0.00
74086;PMS7003;62445;48.406;-4.518;2023-02-03T09:38:25;0.25;0.00;0.00
74086;PMS7003;62445;48.406;-4.518;2023-02-03T09:40:55;0.00;0.00;0.00
74086;PMS7003;62445;48.406;-4.518;2023-02-03T09:49:05;0.00;0.00;0.00
74086;PMS7003;62445;48.406;-4.518;2023-02-03T09:51:52;0.00;0.00;0.00
74086;PMS7003;62445;48.406;-4.518;2023-02-03T09:56:54;0.00;0.00;0.00
74086;PMS7003;62445;48.406;-4.518;2023-02-03T09:59:20;0.50;0.00;0.00
74086;PMS7003;62445;48.406;-4.518;2023-02-03T10:18:23;0.00;0.00;0.00
74086;PMS7003;62445;48.406;-4.518;2023-02-03T10:20:55;0.00;0.00;0.00
74086;PMS7003;62445;48.406;-4.518;2023-02-03T10:23:34;0.00;0.00;0.00
74086;PMS7003;62445;48.406;-4.518;2023-02-03T10:26:16;0.00;0.00;0.00
74086;PMS7003;62445;48.406;-4.518;2023-02-03T10:28:54;0.75;0.00;0.00
74086;PMS7003;62445;48.406;-4.518;2023-02-03T10:31:25;0.00;0.00;0.00
74086;PMS7003;62445;48.406;-4.518;2023-02-03T10:34:08;0.00;0.00;0.00
74086;PMS7003;62445;48.406;-4.518;2023-02-03T10:36:43;0.50;0.00;0.00
74086;PMS7003;62445;48.406;-4.518;2023-02-03T10:41:44;0.00;0.00;0.00
74086;PMS7003;62445;48.406;-4.518;2023-02-03T10:44:10;0.00;0.00;0.00
74086;PMS7003;62445;48.406;-4.518;2023-02-03T10:46:38;0.00;0.00;0.00
74086;PMS7003;62445;48.406;-4.518;2023-02-03T10:49:10;2.00;0.00;0.00
74086;PMS7003;62445;48.406;-4.518;2023-02-03T10:51:43;0.00;0.00;0.00
74086;PMS7003;62445;48.406;-4.518;2023-02-03T10:54:47;0.00;0.00;0.00
74086;PMS7003;62445;48.406;-4.518;2023-02-03T10:57:10;1.00;0.00;0.00
74086;PMS7003;62445;48.406;-4.518;2023-02-03T10:59:42;0.00;0.00;0.00
74086;PMS7003;62445;48.406;-4.518;2023-02-03T11:02:24;0.00;0.00;0.00
74086;PMS7003;62445;48.406;-4.518;2023-02-03T11:07:40;1.00;0.00;0.00
74086;PMS7003;62445;48.406;-4.518;2023-02-03T11:18:40;0.00;0.00;0.00
74086;PMS7003;62445;48.406;-4.518;2023-02-03T11:21:10;0.00;0.00;0.00
74086;PMS7003;62445;48.406;-4.518;2023-02-03T11:23:44;1.25;0.00;0.00
74086;PMS7003;62445;48.406;-4.518;2023-02-03T11:26:15;0.00;0.00;0.00
74086;PMS7003;62445;48.406;-4.518;2023-02-03T11:28:45;0.00;0.00;0.00
74086;PMS7003;62445;48.406;-4.518;2023-02-03T11:31:15;0.00;0.00;0.00
74086;PMS7003;62445;48.406;-4.518;2023-02-03T11:33:53;0.75;0.00;0.00
74086;PMS7003;62445;48.406;-4.518;2023-02-03T11:36:21;0.00;0.00;0.00
74086;PMS7003;62445;48.406;-4.518;2023-02-03T11:38:50;0.00;0.00;0.00
74086;PMS7003;62445;48.406;-4.518;2023-02-03T11:41:17;0.00;0.00;0.00
74086;PMS7003;62445;48.406;-4.518;2023-02-03T11:43:44;0.00;0.00;0.00
74086;PMS7003;62445;48.406;-4.518;2023-02-03T11:46:10;0.00;0.00;0.00
74086;PMS7003;62445;48.406;-4.518;2023-02-03T12:02:45;0.00;0.00;0.00
74086;PMS7003;62445;48.406;-4.518;2023-02-03T12:05:30;0.00;0.00;0.00
74086;PMS7003;62445;48.406;-4.518;2023-02-03T12:11:30;0.00;0.00;0.00
74086;PMS7003;62445;48.406;-4.518;2023-02-03T12:22:42;0.00;0.00;0.00
74086;PMS7003;62445;48.406;-4.518;2023-02-03T12:30:27;0.00;0.00;0.00
74086;PMS7003;62445;48.406;-4.518;2023-02-03T12:33:00;0.00;0.00;0.00
74086;PMS7003;62445;48.406;-4.518;2023-02-03T12:38:09;0.00;0.00;0.00
74086;PMS7003;62445;48.406;-4.518;2023-02-03T12:40:45;0.00;0.00;0.00
74086;PMS7003;62445;48.406;-4.518;2023-02-03T12:43:20;0.00;0.00;0.00
74086;PMS7003;62445;48.406;-4.518;2023-02-03T12:46:12;0.00;0.00;0.00
74086;PMS7003;62445;48.406;-4.518;2023-02-03T12:57:10;0.00;0.00;0.00
74086;PMS7003;62445;48.406;-4.518;2023-02-03T12:59:43;0.00;0.00;0.00
74086;PMS7003;62445;48.406;-4.518;2023-02-03T13:02:19;0.00;0.00;0.00
74086;PMS7003;62445;48.406;-4.518;2023-02-03T13:04:50;0.00;0.00;0.00
74086;PMS7003;62445;48.406;-4.518;2023-02-03T13:09:47;0.00;0.00;0.00
74086;PMS7003;62445;48.406;-4.518;2023-02-03T13:12:30;0.00;0.00;0.00
74086;PMS7003;62445;48.406;-4.518;2023-02-03T13:20:54;0.00;0.00;0.00
74086;PMS7003;62445;48.406;-4.518;2023-02-03T13:23:20;0.00;0.00;0.00
74086;PMS7003;62445;48.406;-4.518;2023-02-03T13:29:00;0.00;0.00;0.00
74086;PMS7003;62445;48.406;-4.518;2023-02-03T13:37:26;0.00;0.00;0.00
74086;PMS7003;62445;48.406;-4.518;2023-02-03T13:42:25;0.25;0.25;0.00
74086;PMS7003;62445;48.406;-4.518;2023-02-03T13:44:55;0.75;0.00;0.00
74086;PMS7003;62445;48.406;-4.518;2023-02-03T13:47:27;0.25;0.00;0.00
74086;PMS7003;62445;48.406;-4.518;2023-02-03T13:49:55;0.00;0.00;0.00
74086;PMS7003;62445;48.406;-4.518;2023-02-03T13:54:59;0.50;0.50;0.25
74086;PMS7003;62445;48.406;-4.518;2023-02-03T13:57:28;0.00;0.00;0.00
74086;PMS7003;62445;48.406;-4.518;2023-02-03T13:59:58;1.00;1.00;0.25
74086;PMS7003;62445;48.406;-4.518;2023-02-03T14:04:50;0.00;0.00;0.00
74086;PMS7003;62445;48.406;-4.518;2023-02-03T14:07:28;0.00;0.00;0.00
74086;PMS7003;62445;48.406;-4.518;2023-02-03T14:10:19;2.00;0.00;0.00
74086;PMS7003;62445;48.406;-4.518;2023-02-03T14:25:24;0.00;0.00;0.00
74086;PMS7003;62445;48.406;-4.518;2023-02-03T14:27:59;0.00;0.00;0.00
74086;PMS7003;62445;48.406;-4.518;2023-02-03T14:30:27;0.00;0.00;0.00
74086;PMS7003;62445;48.406;-4.518;2023-02-03T14:32:53;1.00;1.00;1.00
74086;PMS7003;62445;48.406;-4.518;2023-02-03T14:38:02;0.50;0.50;0.25
74086;PMS7003;62445;48.406;-4.518;2023-02-03T14:59:57;0.25;0.25;0.25
74086;PMS7003;62445;48.406;-4.518;2023-02-03T15:02:26;0.00;0.00;0.00
74086;PMS7003;62445;48.406;-4.518;2023-02-03T15:07:45;0.00;0.00;0.00
74086;PMS7003;62445;48.406;-4.518;2023-02-03T15:12:47;2.25;0.50;0.00
74086;PMS7003;62445;48.406;-4.518;2023-02-03T15:17:55;0.00;0.00;0.00
74086;PMS7003;62445;48.406;-4.518;2023-02-03T15:22:58;0.00;0.00;0.00
74086;PMS7003;62445;48.406;-4.518;2023-02-03T15:25:23;0.00;0.00;0.00
74086;PMS7003;62445;48.406;-4.518;2023-02-03T15:27:51;0.00;0.00;0.00
74086;PMS7003;62445;48.406;-4.518;2023-02-03T15:30:19;0.00;0.00;0.00
74086;PMS7003;62445;48.406;-4.518;2023-02-03T15:35:29;0.00;0.00;0.00
74086;PMS7003;62445;48.406;-4.518;2023-02-03T15:38:05;0.00;0.00;0.00
74086;PMS7003;62445;48.406;-4.518;2023-02-03T15:40:37;1.00;1.00;0.00
74086;PMS7003;62445;48.406;-4.518;2023-02-03T15:45:51;0.00;0.00;0.00
74086;PMS7003;62445;48.406;-4.518;2023-02-03T15:51:06;0.00;0.00;0.00
74086;PMS7003;62445;48.406;-4.518;2023-02-03T15:53:42;0.50;0.50;0.00
74086;PMS7003;62445;48.406;-4.518;2023-02-03T15:56:22;0.00;0.00;0.00
74086;PMS7003;62445;48.406;-4.518;2023-02-03T15:58:51;1.00;0.00;0.00
74086;PMS7003;62445;48.406;-4.518;2023-02-03T16:01:18;0.00;0.00;0.00
74086;PMS7003;62445;48.406;-4.518;2023-02-03T16:03:50;0.00;0.00;0.00
74086;PMS7003;62445;48.406;-4.518;2023-02-03T16:06:18;0.25;0.25;0.00
74086;PMS7003;62445;48.406;-4.518;2023-02-03T16:08:52;0.00;0.00;0.00
74086;PMS7003;62445;48.406;-4.518;2023-02-03T16:13:48;0.00;0.00;0.00
74086;PMS7003;62445;48.406;-4.518;2023-02-03T16:16:15;0.00;0.00;0.00
74086;PMS7003;62445;48.406;-4.518;2023-02-03T16:18:49;1.00;1.00;1.00
74086;PMS7003;62445;48.406;-4.518;2023-02-03T16:21:23;2.50;2.50;2.00
74086;PMS7003;62445;48.406;-4.518;2023-02-03T16:23:49;2.00;1.00;1.00
74086;PMS7003;62445;48.406;-4.518;2023-02-03T16:26:18;4.50;2.75;2.00
74086;PMS7003;62445;48.406;-4.518;2023-02-03T16:31:43;3.00;1.25;1.00
74086;PMS7003;62445;48.406;-4.518;2023-02-03T16:34:29;2.75;2.75;2.00
74086;PMS7003;62445;48.406;-4.518;2023-02-03T16:37:19;2.25;2.25;2.00
74086;PMS7003;62445;48.406;-4.518;2023-02-03T16:40:09;3.25;2.50;2.50
74086;PMS7003;62445;48.406;-4.518;2023-02-03T16:42:54;2.50;2.00;1.75
74086;PMS7003;62445;48.406;-4.518;2023-02-03T16:45:38;3.00;3.00;2.75
74086;PMS7003;62445;48.406;-4.518;2023-02-03T16:48:22;2.75;2.00;1.75
74086;PMS7003;62445;48.406;-4.518;2023-02-03T16:51:10;3.50;3.00;2.25
74086;PMS7003;62445;48.406;-4.518;2023-02-03T16:53:40;3.25;2.75;2.00
74086;PMS7003;62445;48.406;-4.518;2023-02-03T16:56:07;3.75;2.50;2.00
74086;PMS7003;62445;48.406;-4.518;2023-02-03T16:58:34;7.00;3.50;2.00
74086;PMS7003;62445;48.406;-4.518;2023-02-03T17:01:00;3.00;3.00;2.00
74086;PMS7003;62445;48.406;-4.518;2023-02-03T17:03:28;2.00;2.00;1.25
74086;PMS7003;62445;48.406;-4.518;2023-02-03T17:05:54;2.50;2.50;2.00
74086;PMS7003;62445;48.406;-4.518;2023-02-03T17:08:22;2.00;2.00;1.50
74086;PMS7003;62445;48.406;-4.518;2023-02-03T17:10:49;4.25;1.50;1.00
74086;PMS7003;62445;48.406;-4.518;2023-02-03T17:13:15;4.25;2.00;1.75
74086;PMS7003;62445;48.406;-4.518;2023-02-03T17:15:45;8.00;1.00;1.00
74086;PMS7003;62445;48.406;-4.518;2023-02-03T17:18:13;3.00;2.00;1.00
74086;PMS7003;62445;48.406;-4.518;2023-02-03T17:20:40;2.25;1.00;0.75
74086;PMS7003;62445;48.406;-4.518;2023-02-03T17:23:06;3.00;2.50;2.00
74086;PMS7003;62445;48.406;-4.518;2023-02-03T17:25:32;1.00;1.00;0.25
74086;PMS7003;62445;48.406;-4.518;2023-02-03T17:28:00;3.50;2.00;1.00
74086;PMS7003;62445;48.406;-4.518;2023-02-03T17:30:29;2.00;2.00;2.00
74086;PMS7003;62445;48.406;-4.518;2023-02-03T17:33:05;2.00;2.00;1.00
74086;PMS7003;62445;48.406;-4.518;2023-02-03T17:35:39;3.00;1.00;1.00
74086;PMS7003;62445;48.406;-4.518;2023-02-03T17:38:09;2.00;2.00;1.75
74086;PMS7003;62445;48.406;-4.518;2023-02-03T17:40:37;2.75;2.00;1.25
74086;PMS7003;62445;48.406;-4.518;2023-02-03T17:43:04;2.00;1.25;1.00